createdAt,value
2017-07-02T00:00:54.541Z,100167.79
2017-07-02T00:03:24.361Z,100166.23
2017-07-02T00:05:54.075Z,100163.30
2017-07-02T00:08:23.989Z,100166.14
2017-07-02T00:10:53.765Z,100166.66
2017-07-02T00:13:23.620Z,100161.98
2017-07-02T00:15:53.404Z,100159.92
2017-07-02T00:18:23.865Z,100162.91
2017-07-02T00:20:53.683Z,100167.66
2017-07-02T00:23:24.295Z,100166.44
2017-07-02T00:25:54.132Z,100166.66
2017-07-02T00:28:23.878Z,100171.56
2017-07-02T00:30:53.586Z,100172.88
2017-07-02T00:33:23.477Z,100171.80
2017-07-02T00:35:53.264Z,100177.41
2017-07-02T00:38:23.538Z,100179.91
2017-07-02T00:40:53.348Z,100174.28
2017-07-02T00:43:23.257Z,100171.39
2017-07-02T00:45:52.998Z,100181.11
2017-07-02T00:48:22.781Z,100180.73
2017-07-02T00:50:52.534Z,100180.18
2017-07-02T00:53:22.334Z,100186.91
2017-07-02T00:55:52.079Z,100192.91
2017-07-02T00:58:21.866Z,100196.38
2017-07-02T01:00:51.694Z,100193.59
2017-07-02T01:03:21.522Z,100198.64
2017-07-02T01:05:51.318Z,100195.89
2017-07-02T01:08:21.206Z,100196.56
2017-07-02T01:10:51.028Z,100203.66
2017-07-02T01:13:21.650Z,100195.64
2017-07-02T01:15:51.398Z,100198.19
2017-07-02T01:18:21.107Z,100198.29
2017-07-02T01:20:51.003Z,100203.94
2017-07-02T01:23:20.754Z,100197.84
2017-07-02T01:25:51.351Z,100198.77
2017-07-02T01:28:21.062Z,100206.87
2017-07-02T01:30:50.810Z,100194.27
2017-07-02T01:33:20.695Z,100209.84
2017-07-02T01:35:50.519Z,100212.12
2017-07-02T01:38:20.325Z,100215.59
2017-07-02T01:40:50.090Z,100214.23
2017-07-02T01:43:19.878Z,100211.29
2017-07-02T01:45:49.709Z,100219.08
2017-07-02T01:48:19.147Z,100220.34
2017-07-02T01:50:49.000Z,100221.34
2017-07-02T01:53:18.811Z,100224.89
2017-07-02T01:55:47.916Z,100226.97
2017-07-02T01:58:16.952Z,100224.77
2017-07-02T02:00:58.009Z,100228.44
2017-07-02T02:03:27.481Z,100231.59
2017-07-02T02:05:57.226Z,100227.88
2017-07-02T02:08:27.018Z,100225.77
2017-07-02T02:10:56.739Z,100228.22
2017-07-02T02:13:26.459Z,100233.25
2017-07-02T02:15:56.290Z,100236.43
2017-07-02T02:18:26.107Z,100237.83
2017-07-02T02:20:55.865Z,100239.19
2017-07-02T02:23:25.647Z,100239.19
2017-07-02T02:25:55.427Z,100239.52
2017-07-02T02:28:25.197Z,100246.91
2017-07-02T02:30:55.772Z,100249.94
2017-07-02T02:33:25.689Z,100247.20
2017-07-02T02:35:55.530Z,100256.95
2017-07-02T02:38:25.320Z,100256.22
2017-07-02T02:40:55.061Z,100260.37
2017-07-02T02:43:24.879Z,100263.09
2017-07-02T02:45:55.481Z,100267.91
2017-07-02T02:48:25.205Z,100266.69
2017-07-02T02:50:55.012Z,100266.89
2017-07-02T02:53:24.778Z,100266.56
2017-07-02T02:55:54.569Z,100268.05
2017-07-02T02:58:24.316Z,100272.54
2017-07-02T03:00:54.096Z,100281.59
2017-07-02T03:03:23.989Z,100274.71
2017-07-02T03:05:53.722Z,100283.21
2017-07-02T03:08:23.551Z,100282.91
2017-07-02T03:10:53.439Z,100281.24
2017-07-02T03:13:23.178Z,100285.64
2017-07-02T03:15:53.069Z,100292.23
2017-07-02T03:18:22.874Z,100297.27
2017-07-02T03:20:53.461Z,100306.47
2017-07-02T03:23:23.335Z,100305.48
2017-07-02T03:25:53.049Z,100311.21
2017-07-02T03:28:22.763Z,100312.06
2017-07-02T03:30:52.516Z,100312.74
2017-07-02T03:33:22.334Z,100320.43
2017-07-02T03:35:52.726Z,100324.99
2017-07-02T03:38:22.538Z,100331.21
2017-07-02T03:40:52.350Z,100331.00
2017-07-02T03:43:22.097Z,100331.05
2017-07-02T03:45:51.905Z,100331.52
2017-07-02T03:48:21.797Z,100336.05
2017-07-02T03:50:51.549Z,100339.65
2017-07-02T03:53:22.038Z,100344.13
2017-07-02T03:55:51.755Z,100346.00
2017-07-02T03:58:21.642Z,100349.78
2017-07-02T04:00:52.411Z,100354.81
2017-07-02T04:03:22.159Z,100358.12
2017-07-02T04:05:51.938Z,100362.41
2017-07-02T04:08:21.674Z,100372.04
2017-07-02T04:10:50.696Z,100372.36
2017-07-02T04:13:20.466Z,100374.56
2017-07-02T04:15:50.209Z,100382.69
2017-07-02T04:18:19.992Z,100379.61
2017-07-02T04:20:50.318Z,100383.33
2017-07-02T04:23:20.215Z,100387.55
2017-07-02T04:25:50.729Z,100387.14
2017-07-02T04:28:21.358Z,100390.86
2017-07-02T04:30:51.187Z,100397.05
2017-07-02T04:33:21.681Z,100399.39
2017-07-02T04:35:51.521Z,100399.39
2017-07-02T04:38:21.331Z,100404.27
2017-07-02T04:40:51.068Z,100398.74
2017-07-02T04:43:20.859Z,100405.80
2017-07-02T04:45:50.659Z,100402.89
2017-07-02T04:48:20.480Z,100411.19
2017-07-02T04:50:51.744Z,100409.44
2017-07-02T04:53:21.510Z,100414.00
2017-07-02T04:55:51.213Z,100416.49
2017-07-02T04:58:21.039Z,100422.98
2017-07-02T05:00:50.779Z,100426.69
2017-07-02T05:03:20.568Z,100428.05
2017-07-02T05:05:50.334Z,100427.75
2017-07-02T05:08:20.199Z,100428.66
2017-07-02T05:10:50.017Z,100440.73
2017-07-02T05:13:19.771Z,100442.49
2017-07-02T05:15:49.467Z,100443.13
2017-07-02T05:18:19.231Z,100445.49
2017-07-02T05:20:48.986Z,100446.71
2017-07-02T05:23:18.889Z,100443.11
2017-07-02T05:25:48.705Z,100442.05
2017-07-02T05:28:18.446Z,100441.61
2017-07-02T05:30:48.400Z,100442.11
2017-07-02T05:33:18.345Z,100448.02
2017-07-02T05:35:49.021Z,100448.02
2017-07-02T05:38:18.862Z,100446.58
2017-07-02T05:40:48.658Z,100442.62
2017-07-02T05:43:18.483Z,100449.66
2017-07-02T05:45:48.278Z,100449.55
2017-07-02T05:48:18.071Z,100457.44
2017-07-02T05:50:48.908Z,100466.63
2017-07-02T05:53:18.723Z,100469.09
2017-07-02T05:55:48.466Z,100473.09
2017-07-02T05:58:18.825Z,100481.95
2017-07-02T06:00:48.624Z,100483.80
2017-07-02T06:03:18.314Z,100480.40
2017-07-02T06:05:48.212Z,100485.78
2017-07-02T06:08:17.979Z,100481.88
2017-07-02T06:10:47.843Z,100496.81
2017-07-02T06:13:17.606Z,100496.30
2017-07-02T06:15:48.114Z,100497.71
2017-07-02T06:18:17.850Z,100505.88
2017-07-02T06:20:47.642Z,100502.58
2017-07-02T06:23:17.361Z,100508.27
2017-07-02T06:25:47.813Z,100511.11
2017-07-02T06:28:17.587Z,100513.23
2017-07-02T06:30:47.419Z,100511.87
2017-07-02T06:33:17.928Z,100509.52
2017-07-02T06:35:47.709Z,100511.69
2017-07-02T06:38:17.471Z,100511.98
2017-07-02T06:40:47.290Z,100517.92
2017-07-02T06:43:17.090Z,100521.30
2017-07-02T06:45:46.829Z,100521.17
2017-07-02T06:48:16.538Z,100527.25
2017-07-02T06:50:46.331Z,100532.67
2017-07-02T06:53:16.061Z,100531.41
2017-07-02T06:55:45.755Z,100539.05
2017-07-02T06:58:15.573Z,100534.91
2017-07-02T07:00:45.424Z,100548.94
2017-07-02T07:03:15.720Z,100547.28
2017-07-02T07:05:45.466Z,100552.44
2017-07-02T07:08:16.510Z,100552.55
2017-07-02T07:10:48.247Z,100554.80
2017-07-02T07:13:19.320Z,100550.52
2017-07-02T07:15:50.817Z,100553.45
2017-07-02T07:18:22.246Z,100556.47
2017-07-02T07:20:52.508Z,100558.59
2017-07-02T07:23:22.243Z,100555.89
2017-07-02T07:25:52.062Z,100558.84
2017-07-02T07:28:21.854Z,100563.53
2017-07-02T07:30:51.670Z,100555.32
2017-07-02T07:33:22.106Z,100558.59
2017-07-02T07:35:51.883Z,100557.55
2017-07-02T07:38:21.658Z,100557.45
2017-07-02T07:40:52.777Z,100554.27
2017-07-02T07:43:23.209Z,100553.11
2017-07-02T07:45:53.813Z,100554.31
2017-07-02T07:48:23.746Z,100552.36
2017-07-02T07:50:55.279Z,100554.87
2017-07-02T07:53:26.566Z,100551.92
2017-07-02T07:55:57.257Z,100550.43
2017-07-02T07:58:27.420Z,100553.35
2017-07-02T08:00:59.743Z,100557.50
2017-07-02T08:03:30.274Z,100557.03
2017-07-02T08:06:01.490Z,100552.44
2017-07-02T08:08:32.525Z,100546.84
2017-07-02T08:11:02.978Z,100549.29
2017-07-02T08:13:33.660Z,100544.01
2017-07-02T08:16:04.509Z,100542.28
2017-07-02T08:18:35.630Z,100546.70
2017-07-02T08:21:06.597Z,100550.81
2017-07-02T08:23:37.621Z,100555.33
2017-07-02T08:26:08.595Z,100553.72
2017-07-02T08:28:39.770Z,100549.39
2017-07-02T08:31:11.879Z,100554.31
2017-07-02T08:33:45.789Z,100555.25
2017-07-02T08:36:19.706Z,100553.69
2017-07-02T08:38:52.026Z,100554.14
2017-07-02T08:41:25.393Z,100539.84
2017-07-02T08:43:58.114Z,100550.64
2017-07-02T08:46:30.846Z,100552.38
2017-07-02T08:49:03.123Z,100556.80
2017-07-02T08:51:33.693Z,100553.55
2017-07-02T08:54:05.015Z,100555.08
2017-07-02T08:56:37.017Z,100556.16
2017-07-02T08:59:08.011Z,100549.55
2017-07-02T09:01:39.404Z,100552.16
2017-07-02T09:04:09.563Z,100561.51
2017-07-02T09:06:40.340Z,100564.45
2017-07-02T09:09:10.669Z,100560.46
2017-07-02T09:11:41.303Z,100559.26
2017-07-02T09:14:10.982Z,100571.30
2017-07-02T09:16:40.770Z,100567.08
2017-07-02T09:19:10.565Z,100573.08
2017-07-02T09:21:42.291Z,100565.23
2017-07-02T09:24:14.822Z,100568.70
2017-07-02T09:26:48.495Z,100577.53
2017-07-02T09:29:19.708Z,100576.27
2017-07-02T09:31:51.739Z,100577.22
2017-07-02T09:34:25.385Z,100590.08
2017-07-02T09:36:58.748Z,100586.27
2017-07-02T09:39:31.683Z,100574.09
2017-07-02T09:42:04.359Z,100577.02
2017-07-02T09:44:37.790Z,100578.09
2017-07-02T09:47:10.455Z,100583.32
2017-07-02T09:49:44.455Z,100584.53
2017-07-02T09:52:16.476Z,100587.67
2017-07-02T09:54:48.288Z,100583.88
2017-07-02T09:57:19.991Z,100582.01
2017-07-02T09:59:53.095Z,100581.36
2017-07-02T10:02:26.764Z,100578.95
2017-07-02T10:04:59.682Z,100577.73
2017-07-02T10:07:32.614Z,100579.67
2017-07-02T10:10:06.955Z,100581.95
2017-07-02T10:12:38.375Z,100582.11
2017-07-02T10:15:10.610Z,100584.03
2017-07-02T10:17:42.788Z,100589.69
2017-07-02T10:20:17.109Z,100592.97
2017-07-02T10:22:50.205Z,100589.03
2017-07-02T10:25:22.942Z,100591.75
2017-07-02T10:27:55.364Z,100582.58
2017-07-02T10:30:27.643Z,100581.23
2017-07-02T10:33:01.059Z,100584.06
2017-07-02T10:35:32.007Z,100573.06
2017-07-02T10:38:02.831Z,100565.92
2017-07-02T10:40:33.053Z,100570.19
2017-07-02T10:43:03.582Z,100573.33
2017-07-02T10:45:34.401Z,100577.87
2017-07-02T10:48:04.911Z,100578.11
2017-07-02T10:50:37.147Z,100577.04
2017-07-02T10:53:08.499Z,100577.56
2017-07-02T10:55:40.456Z,100581.80
2017-07-02T10:58:11.804Z,100580.86
2017-07-02T11:00:42.737Z,100577.59
2017-07-02T11:03:14.646Z,100579.16
2017-07-02T11:05:45.509Z,100572.33
2017-07-02T11:08:15.266Z,100574.47
2017-07-02T11:10:45.699Z,100568.77
2017-07-02T11:13:15.416Z,100575.80
2017-07-02T11:15:45.150Z,100578.11
2017-07-02T11:18:14.982Z,100576.98
2017-07-02T11:20:44.670Z,100579.64
2017-07-02T11:23:14.443Z,100579.21
2017-07-02T11:25:44.391Z,100583.62
2017-07-02T11:28:14.140Z,100590.00
2017-07-02T11:30:43.941Z,100592.41
2017-07-02T11:33:13.769Z,100594.73
2017-07-02T11:35:43.522Z,100590.52
2017-07-02T11:38:13.386Z,100588.75
2017-07-02T11:40:43.196Z,100589.92
2017-07-02T11:43:13.047Z,100589.88
2017-07-02T11:45:43.557Z,100579.52
2017-07-02T11:48:13.386Z,100588.60
2017-07-02T11:50:43.189Z,100599.05
2017-07-02T11:53:12.974Z,100593.55
2017-07-02T11:55:42.522Z,100605.16
2017-07-02T11:58:12.302Z,100596.13
2017-07-02T12:00:42.090Z,100600.85
2017-07-02T12:03:12.450Z,100599.92
2017-07-02T12:05:42.127Z,100592.98
2017-07-02T12:08:11.872Z,100606.22
2017-07-02T12:10:41.602Z,100601.83
2017-07-02T12:13:11.403Z,100602.17
2017-07-02T12:15:41.134Z,100597.08
2017-07-02T12:18:10.802Z,100604.44
2017-07-02T12:20:39.872Z,100609.59
2017-07-02T12:23:08.963Z,100609.19
2017-07-02T12:25:38.434Z,100601.14
2017-07-02T12:28:07.455Z,100608.45
2017-07-02T12:30:36.431Z,100612.19
2017-07-02T12:33:05.840Z,100608.58
2017-07-02T12:35:34.849Z,100595.06
2017-07-02T12:38:04.009Z,100603.05
2017-07-02T12:40:33.031Z,100604.89
2017-07-02T12:43:02.774Z,100600.69
2017-07-02T12:45:32.358Z,100603.88
2017-07-02T12:48:02.087Z,100603.69
2017-07-02T12:50:31.885Z,100605.90
2017-07-02T12:53:01.594Z,100606.78
2017-07-02T12:55:31.358Z,100601.14
2017-07-02T12:58:01.076Z,100606.83
2017-07-02T13:00:30.850Z,100607.94
2017-07-02T13:03:00.567Z,100600.98
2017-07-02T13:05:30.816Z,100596.53
2017-07-02T13:08:00.563Z,100600.57
2017-07-02T13:10:31.170Z,100597.71
2017-07-02T13:13:01.007Z,100592.83
2017-07-02T13:15:30.863Z,100594.40
2017-07-02T13:18:00.606Z,100597.41
2017-07-02T13:20:30.435Z,100595.56
2017-07-02T13:23:00.208Z,100596.35
2017-07-02T13:25:30.026Z,100600.92
2017-07-02T13:27:59.727Z,100602.52
2017-07-02T13:30:29.466Z,100603.64
2017-07-02T13:32:59.310Z,100599.83
2017-07-02T13:35:29.630Z,100607.98
2017-07-02T13:37:59.467Z,100605.21
2017-07-02T13:40:29.231Z,100607.30
2017-07-02T13:42:58.942Z,100605.48
2017-07-02T13:45:28.704Z,100613.47
2017-07-02T13:47:58.473Z,100605.02
2017-07-02T13:50:28.239Z,100609.23
2017-07-02T13:52:58.563Z,100608.39
2017-07-02T13:55:28.429Z,100610.84
2017-07-02T13:57:58.189Z,100608.23
2017-07-02T14:00:27.976Z,100610.16
2017-07-02T14:02:57.704Z,100615.02
2017-07-02T14:05:27.526Z,100609.87
2017-07-02T14:07:57.218Z,100610.31
2017-07-02T14:10:27.016Z,100609.94
2017-07-02T14:12:56.758Z,100605.55
2017-07-02T14:15:27.482Z,100602.57
2017-07-02T14:17:57.170Z,100604.76
2017-07-02T14:20:26.929Z,100603.37
2017-07-02T14:22:56.654Z,100604.39
2017-07-02T14:25:28.498Z,100605.63
2017-07-02T14:27:59.058Z,100604.77
2017-07-02T14:30:29.474Z,100605.12
2017-07-02T14:33:01.573Z,100608.45
2017-07-02T14:35:32.139Z,100612.08
2017-07-02T14:38:01.909Z,100607.22
2017-07-02T14:40:31.593Z,100604.33
2017-07-02T14:43:01.273Z,100603.36
2017-07-02T14:45:31.714Z,100605.67
2017-07-02T14:48:01.525Z,100615.70
2017-07-02T14:50:31.337Z,100621.23
2017-07-02T14:53:01.047Z,100615.54
2017-07-02T14:55:31.074Z,100622.25
2017-07-02T14:58:00.828Z,100619.70
2017-07-02T15:00:30.627Z,100620.01
2017-07-02T15:03:00.352Z,100623.25
2017-07-02T15:05:30.629Z,100621.56
2017-07-02T15:08:00.867Z,100617.75
2017-07-02T15:10:30.629Z,100618.88
2017-07-02T15:13:01.728Z,100623.62
2017-07-02T15:15:31.476Z,100625.18
2017-07-02T15:18:02.044Z,100620.39
2017-07-02T15:20:34.839Z,100619.78
2017-07-02T15:23:06.797Z,100631.62
2017-07-02T15:25:40.088Z,100628.81
2017-07-02T15:28:12.009Z,100634.23
2017-07-02T15:30:44.735Z,100633.14
2017-07-02T15:33:16.640Z,100635.02
2017-07-02T15:35:49.284Z,100636.11
2017-07-02T15:38:20.406Z,100635.87
2017-07-02T15:40:50.196Z,100643.59
2017-07-02T15:43:22.510Z,100644.48
2017-07-02T15:45:53.524Z,100644.90
2017-07-02T15:48:23.506Z,100637.80
2017-07-02T15:50:55.856Z,100638.22
2017-07-02T15:53:28.640Z,100640.87
2017-07-02T15:56:01.615Z,100637.86
2017-07-02T15:58:32.803Z,100637.80
2017-07-02T16:01:03.023Z,100634.41
2017-07-02T16:03:33.032Z,100633.51
2017-07-02T16:06:04.045Z,100637.87
2017-07-02T16:08:33.790Z,100635.67
2017-07-02T16:11:03.689Z,100629.09
2017-07-02T16:13:34.162Z,100627.37
2017-07-02T16:16:04.069Z,100628.48
2017-07-02T16:18:33.891Z,100629.94
2017-07-02T16:21:03.594Z,100628.09
2017-07-02T16:23:33.872Z,100634.84
2017-07-02T16:26:03.714Z,100626.52
2017-07-02T16:28:36.337Z,100632.41
2017-07-02T16:31:06.739Z,100636.69
2017-07-02T16:33:37.050Z,100639.22
2017-07-02T16:36:07.273Z,100639.73
2017-07-02T16:38:39.601Z,100636.89
2017-07-02T16:41:11.334Z,100643.86
2017-07-02T16:43:43.404Z,100648.28
2017-07-02T16:46:14.443Z,100643.63
2017-07-02T16:48:46.001Z,100641.61
2017-07-02T16:51:16.443Z,100647.72
2017-07-02T16:53:46.424Z,100658.91
2017-07-02T16:56:16.189Z,100668.28
2017-07-02T16:58:46.031Z,100686.21
2017-07-02T17:01:15.801Z,100687.48
2017-07-02T17:03:45.788Z,100683.56
2017-07-02T17:06:17.036Z,100681.66
2017-07-02T17:08:48.619Z,100681.73
2017-07-02T17:11:19.457Z,100691.86
2017-07-02T17:13:50.049Z,100688.92
2017-07-02T17:16:20.219Z,100690.73
2017-07-02T17:18:50.031Z,100678.97
2017-07-02T17:21:20.275Z,100681.30
2017-07-02T17:23:52.476Z,100675.20
2017-07-02T17:26:24.390Z,100683.66
2017-07-02T17:28:56.764Z,100686.44
2017-07-02T17:31:29.491Z,100699.88
2017-07-02T17:34:00.494Z,100700.28
2017-07-02T17:36:33.704Z,100694.00
2017-07-02T17:39:06.985Z,100693.00
2017-07-02T17:41:38.084Z,100697.11
2017-07-02T17:44:08.666Z,100689.57
2017-07-02T17:46:40.777Z,100698.13
2017-07-02T17:49:12.298Z,100693.80
2017-07-02T17:51:44.243Z,100695.73
2017-07-02T17:54:16.144Z,100703.31
2017-07-02T17:56:48.744Z,100701.77
2017-07-02T17:59:19.991Z,100706.53
2017-07-02T18:01:51.736Z,100706.88
2017-07-02T18:04:25.167Z,100701.56
2017-07-02T18:06:56.866Z,100710.59
2017-07-02T18:09:28.735Z,100705.70
2017-07-02T18:12:01.475Z,100705.77
2017-07-02T18:14:32.646Z,100707.13
2017-07-02T18:17:05.844Z,100710.20
2017-07-02T18:19:37.463Z,100704.45
2017-07-02T18:22:07.209Z,100706.17
2017-07-02T18:24:38.553Z,100703.02
2017-07-02T18:27:09.580Z,100711.78
2017-07-02T18:29:39.626Z,100707.91
2017-07-02T18:32:13.769Z,100710.84
2017-07-02T18:34:44.578Z,100708.16
2017-07-02T18:37:16.169Z,100711.67
2017-07-02T18:39:47.730Z,100720.56
2017-07-02T18:42:18.886Z,100720.61
2017-07-02T18:44:50.411Z,100721.84
2017-07-02T18:47:20.609Z,100719.61
2017-07-02T18:49:52.233Z,100718.58
2017-07-02T18:52:24.521Z,100725.69
2017-07-02T18:54:57.089Z,100735.48
2017-07-02T18:57:29.690Z,100742.72
2017-07-02T19:00:01.041Z,100736.22
2017-07-02T19:02:30.881Z,100735.16
2017-07-02T19:05:04.587Z,100746.85
2017-07-02T19:07:34.923Z,100744.96
2017-07-02T19:10:06.839Z,100741.92
2017-07-02T19:12:40.628Z,100749.30
2017-07-02T19:15:14.065Z,100752.16
2017-07-02T19:17:46.586Z,100760.40
2017-07-02T19:20:19.242Z,100759.33
2017-07-02T19:22:52.098Z,100768.67
2017-07-02T19:25:24.639Z,100767.12
2017-07-02T19:27:58.332Z,100769.61
2017-07-02T19:30:31.451Z,100772.92
2017-07-02T19:33:02.086Z,100779.70
2017-07-02T19:35:31.566Z,100783.72
2017-07-02T19:38:01.223Z,100780.13
2017-07-02T19:40:31.032Z,100777.82
2017-07-02T19:43:00.876Z,100776.86
2017-07-02T19:45:30.630Z,100784.66
2017-07-02T19:48:00.389Z,100783.05
2017-07-02T19:50:30.126Z,100785.25
2017-07-02T19:52:59.809Z,100791.88
2017-07-02T19:55:30.222Z,100792.36
2017-07-02T19:58:00.081Z,100800.14
2017-07-02T20:00:29.866Z,100809.03
2017-07-02T20:03:00.670Z,100810.64
2017-07-02T20:05:30.422Z,100812.73
2017-07-02T20:08:00.390Z,100817.52
2017-07-02T20:10:30.226Z,100814.41
2017-07-02T20:12:59.811Z,100816.05
2017-07-02T20:15:29.403Z,100819.91
2017-07-02T20:17:59.129Z,100819.56
2017-07-02T20:20:28.827Z,100817.81
2017-07-02T20:22:58.582Z,100821.25
2017-07-02T20:25:28.358Z,100826.82
2017-07-02T20:27:58.067Z,100825.50
2017-07-02T20:30:27.713Z,100827.45
2017-07-02T20:32:57.500Z,100827.20
2017-07-02T20:35:27.247Z,100833.41
2017-07-02T20:37:56.936Z,100840.49
2017-07-02T20:40:26.693Z,100835.07
2017-07-02T20:42:56.562Z,100832.27
2017-07-02T20:45:27.093Z,100834.80
2017-07-02T20:47:56.797Z,100840.32
2017-07-02T20:50:26.621Z,100845.61
2017-07-02T20:52:56.334Z,100848.23
2017-07-02T20:55:26.153Z,100851.69
2017-07-02T20:57:56.555Z,100850.72
2017-07-02T21:00:27.008Z,100852.95
2017-07-02T21:02:56.719Z,100853.48
2017-07-02T21:05:27.003Z,100856.49
2017-07-02T21:07:56.759Z,100856.23
2017-07-02T21:10:26.519Z,100858.06
2017-07-02T21:12:56.294Z,100859.47
2017-07-02T21:15:26.014Z,100865.05
2017-07-02T21:17:55.752Z,100865.02
2017-07-02T21:20:26.048Z,100867.23
2017-07-02T21:22:55.753Z,100868.56
2017-07-02T21:25:25.578Z,100867.09
2017-07-02T21:27:55.319Z,100868.89
2017-07-02T21:30:25.005Z,100874.50
2017-07-02T21:32:54.719Z,100876.15
2017-07-02T21:35:24.431Z,100882.05
2017-07-02T21:37:54.228Z,100884.44
2017-07-02T21:40:24.135Z,100889.52
2017-07-02T21:42:53.876Z,100888.27
2017-07-02T21:45:23.607Z,100891.41
2017-07-02T21:47:53.356Z,100898.35
2017-07-02T21:50:23.229Z,100905.42
2017-07-02T21:52:53.038Z,100901.07
2017-07-02T21:55:22.896Z,100911.66
2017-07-02T21:57:53.363Z,100909.48
2017-07-02T22:00:23.269Z,100911.87
2017-07-02T22:02:53.018Z,100921.67
2017-07-02T22:05:22.737Z,100926.36
2017-07-02T22:07:52.513Z,100928.25
2017-07-02T22:10:22.363Z,100924.31
2017-07-02T22:12:52.231Z,100926.13
2017-07-02T22:15:21.894Z,100932.35
2017-07-02T22:17:51.635Z,100939.34
2017-07-02T22:20:21.423Z,100943.27
2017-07-02T22:22:51.197Z,100945.88
2017-07-02T22:25:20.886Z,100947.20
2017-07-02T22:27:50.666Z,100953.08
2017-07-02T22:30:20.344Z,100949.19
2017-07-02T22:32:50.091Z,100955.31
2017-07-02T22:35:19.800Z,100947.22
2017-07-02T22:37:49.532Z,100960.73
2017-07-02T22:40:19.858Z,100958.04
2017-07-02T22:42:49.663Z,100960.47
2017-07-02T22:45:19.373Z,100963.02
2017-07-02T22:47:49.757Z,100961.63
2017-07-02T22:50:20.134Z,100963.14
2017-07-02T22:52:50.430Z,100969.66
2017-07-02T22:55:20.843Z,100967.22
2017-07-02T22:57:51.442Z,100967.05
2017-07-02T23:00:21.959Z,100964.81
2017-07-02T23:02:52.323Z,100967.92
2017-07-02T23:05:22.099Z,100969.50
2017-07-02T23:07:51.897Z,100971.47
2017-07-02T23:10:21.654Z,100977.73
2017-07-02T23:12:51.438Z,100984.53
2017-07-02T23:15:21.882Z,100986.03
2017-07-02T23:17:51.589Z,100988.08
2017-07-02T23:20:21.312Z,100989.69
2017-07-02T23:22:51.119Z,100990.94
2017-07-02T23:25:20.803Z,100992.44
2017-07-02T23:27:50.645Z,100991.66
2017-07-02T23:30:20.373Z,100996.37
2017-07-02T23:32:50.078Z,100999.78
2017-07-02T23:35:19.810Z,100998.63
2017-07-02T23:37:49.636Z,101006.23
2017-07-02T23:40:20.133Z,101007.98
2017-07-02T23:42:49.851Z,101006.66
2017-07-02T23:45:19.663Z,101017.13
2017-07-02T23:47:49.400Z,101019.92
2017-07-02T23:50:20.117Z,101013.31
2017-07-02T23:52:49.872Z,101017.72
2017-07-02T23:55:19.745Z,101019.08
2017-07-02T23:57:49.462Z,101025.03
